createdAt,value
2022-08-17T00:02:01.592Z,8.00
2022-08-17T00:06:16.541Z,7.47
2022-08-17T00:10:16.304Z,7.05
2022-08-17T00:14:24.700Z,7.32
2022-08-17T00:19:06.323Z,7.00
2022-08-17T00:22:47.831Z,7.97
2022-08-17T00:26:49.531Z,7.50
2022-08-17T00:30:53.368Z,6.95
2022-08-17T00:34:59.176Z,7.55
2022-08-17T00:39:01.471Z,6.90
2022-08-17T00:43:12.711Z,8.23
2022-08-17T00:47:13.633Z,8.02
2022-08-17T00:51:21.162Z,7.60
2022-08-17T00:55:23.945Z,7.28
2022-08-17T00:59:28.231Z,7.53
2022-08-17T01:03:31.929Z,7.50
2022-08-17T01:07:35.057Z,7.88
2022-08-17T01:11:43.665Z,7.97
2022-08-17T01:15:46.556Z,8.73
2022-08-17T01:19:48.879Z,8.13
2022-08-17T01:23:52.246Z,8.48
2022-08-17T01:27:52.674Z,8.50
2022-08-17T01:31:57.311Z,9.40
2022-08-17T01:35:58.673Z,8.05
2022-08-17T01:40:11.799Z,7.97
2022-08-17T01:44:18.049Z,8.32
2022-08-17T01:48:20.786Z,8.50
2022-08-17T01:52:24.867Z,8.52
2022-08-17T01:56:30.777Z,8.25
2022-08-17T02:00:59.484Z,8.05
2022-08-17T02:04:56.950Z,7.53
2022-08-17T02:09:02.810Z,8.13
2022-08-17T02:13:07.229Z,8.45
2022-08-17T02:17:10.430Z,8.23
2022-08-17T02:21:15.926Z,7.78
2022-08-17T02:25:19.901Z,7.65
2022-08-17T02:29:26.688Z,8.50
2022-08-17T02:33:41.832Z,7.90
2022-08-17T02:37:44.407Z,7.68
2022-08-17T02:41:48.838Z,8.35
2022-08-17T02:45:52.889Z,8.00
2022-08-17T02:49:56.176Z,8.00
2022-08-17T02:54:35.588Z,8.05
2022-08-17T02:58:34.958Z,7.55
2022-08-17T03:02:43.330Z,7.75
2022-08-17T03:06:42.903Z,7.57
2022-08-17T03:10:46.588Z,7.97
2022-08-17T03:14:50.095Z,7.93
2022-08-17T03:18:54.664Z,8.30
2022-08-17T03:23:02.956Z,8.38
2022-08-17T03:27:03.628Z,7.78
2022-08-17T03:31:07.712Z,8.30
2022-08-17T03:35:12.849Z,7.55
2022-08-17T03:39:13.035Z,7.78
2022-08-17T03:43:18.463Z,8.57
2022-08-17T03:47:37.261Z,7.65
2022-08-17T03:51:56.495Z,8.15
2022-08-17T03:56:17.838Z,8.23
2022-08-17T04:00:22.681Z,9.55
2022-08-17T04:04:27.719Z,9.20
2022-08-17T04:08:32.706Z,8.60
2022-08-17T04:13:01.987Z,8.73
2022-08-17T04:21:48.257Z,8.43
2022-08-17T04:25:53.399Z,7.40
2022-08-17T04:29:54.570Z,7.50
2022-08-17T04:33:56.492Z,6.70
2022-08-17T04:37:56.324Z,7.93
2022-08-17T04:42:17.149Z,7.55
2022-08-17T04:46:20.319Z,7.03
2022-08-17T04:50:21.025Z,7.43
2022-08-17T04:54:22.586Z,6.70
2022-08-17T04:58:33.931Z,7.78
2022-08-17T05:02:34.404Z,7.05
2022-08-17T05:06:34.377Z,7.22
2022-08-17T05:10:37.474Z,7.35
2022-08-17T05:14:52.762Z,6.75
2022-08-17T05:18:53.979Z,6.45
2022-08-17T05:22:55.392Z,7.30
2022-08-17T05:26:58.043Z,7.40
2022-08-17T05:31:05.587Z,6.72
2022-08-17T05:35:15.161Z,6.10
2022-08-17T05:39:18.442Z,6.18
2022-08-17T05:43:22.165Z,5.78
2022-08-17T05:47:30.809Z,6.18
2022-08-17T05:51:43.843Z,6.35
2022-08-17T05:56:11.617Z,6.65
2022-08-17T06:00:52.498Z,5.97
2022-08-17T06:05:13.017Z,6.28
2022-08-17T06:09:38.217Z,6.30
2022-08-17T06:13:55.657Z,6.47
2022-08-17T06:18:01.894Z,6.45
2022-08-17T06:22:06.052Z,6.45
2022-08-17T06:26:13.189Z,8.02
2022-08-17T06:30:16.622Z,8.90
2022-08-17T06:34:16.565Z,8.15
2022-08-17T06:38:37.406Z,7.78
2022-08-17T06:42:54.982Z,8.68
2022-08-17T06:47:28.456Z,7.68
2022-08-17T06:51:36.322Z,6.80
2022-08-17T06:55:59.141Z,7.43
2022-08-17T07:01:02.335Z,7.22
2022-08-17T07:05:03.915Z,6.53
2022-08-17T07:09:08.343Z,6.80
2022-08-17T07:13:29.281Z,5.95
2022-08-17T07:17:46.856Z,7.45
2022-08-17T07:21:54.809Z,6.13
2022-08-17T07:26:08.816Z,6.20
2022-08-17T07:30:27.182Z,6.75
2022-08-17T07:35:37.541Z,6.72
2022-08-17T07:45:30.242Z,6.32
2022-08-17T09:13:09.986Z,5.35
2022-08-17T14:18:55.588Z,5.22
2022-08-17T15:21:54.488Z,4.05
2022-08-17T16:31:55.506Z,4.03
2022-08-17T17:17:46.390Z,5.22
2022-08-17T17:21:51.686Z,5.25
2022-08-17T17:26:02.843Z,5.05
2022-08-17T17:35:43.464Z,4.97
2022-08-17T17:45:45.353Z,5.10
2022-08-17T17:49:49.310Z,5.25
2022-08-17T17:54:01.121Z,5.20
2022-08-17T17:58:39.699Z,4.70
2022-08-17T18:03:07.373Z,4.85
2022-08-17T18:07:29.406Z,4.53
2022-08-17T18:11:51.523Z,5.25
2022-08-17T18:16:01.116Z,5.72
2022-08-17T18:24:02.494Z,5.40
2022-08-17T18:28:02.562Z,5.18
2022-08-17T18:32:27.543Z,4.20
2022-08-17T18:36:30.442Z,5.07
2022-08-17T18:40:39.334Z,4.53
2022-08-17T18:48:59.120Z,3.97
2022-08-17T18:53:26.801Z,4.32
2022-08-17T18:57:34.686Z,4.07
2022-08-17T19:01:52.756Z,3.80
2022-08-17T19:05:58.090Z,4.00
2022-08-17T19:10:04.882Z,3.72
2022-08-17T19:14:08.490Z,4.78
2022-08-17T19:18:17.107Z,3.78
2022-08-17T19:22:29.100Z,3.70
2022-08-17T19:26:53.473Z,4.68
2022-08-17T19:31:02.868Z,4.30
2022-08-17T19:35:03.226Z,4.80
2022-08-17T19:39:13.211Z,4.15
2022-08-17T19:43:28.206Z,4.75
2022-08-17T19:47:54.325Z,4.53
2022-08-17T19:52:00.471Z,4.65
2022-08-17T19:56:11.041Z,5.63
2022-08-17T20:00:13.833Z,5.55
2022-08-17T20:04:18.954Z,5.90
2022-08-17T20:08:24.458Z,5.40
2022-08-17T20:12:32.861Z,7.40
2022-08-17T20:16:34.654Z,6.17
2022-08-17T20:20:46.876Z,5.20
2022-08-17T20:24:54.804Z,6.07
2022-08-17T20:29:39.655Z,6.00
2022-08-17T20:33:41.172Z,6.22
2022-08-17T20:37:45.184Z,6.18
2022-08-17T20:42:21.361Z,6.68
2022-08-17T20:46:53.180Z,6.70
2022-08-17T20:51:00.659Z,7.97
2022-08-17T20:55:02.341Z,5.57
2022-08-17T20:59:03.700Z,7.40
2022-08-17T21:03:51.441Z,6.97
2022-08-17T21:08:00.780Z,6.32
2022-08-17T21:12:05.433Z,6.80
2022-08-17T21:16:26.075Z,5.60
2022-08-17T21:20:32.488Z,6.05
2022-08-17T21:24:47.537Z,6.40
2022-08-17T21:29:17.883Z,7.22
2022-08-17T21:33:31.636Z,7.32
2022-08-17T21:37:43.100Z,8.25
2022-08-17T21:41:59.809Z,6.93
2022-08-17T21:46:06.138Z,8.82
2022-08-17T21:50:20.030Z,7.05
2022-08-17T21:54:34.454Z,6.85
2022-08-17T21:58:40.184Z,8.25
2022-08-17T22:02:44.089Z,7.15
2022-08-17T22:06:52.261Z,8.23
2022-08-17T22:11:03.949Z,7.80
2022-08-17T22:15:10.178Z,6.72
2022-08-17T22:19:12.863Z,6.00
2022-08-17T22:23:32.662Z,7.45
2022-08-17T22:31:58.616Z,6.38
2022-08-17T22:36:16.808Z,7.28
2022-08-17T22:40:28.903Z,7.22
2022-08-17T22:44:33.922Z,7.10
2022-08-17T22:48:37.354Z,7.53
2022-08-17T22:52:59.553Z,7.30
2022-08-17T22:57:20.574Z,7.05
2022-08-17T23:01:29.719Z,7.28
2022-08-17T23:05:34.019Z,7.05
2022-08-17T23:09:34.577Z,7.47
2022-08-17T23:13:37.322Z,7.03
2022-08-17T23:17:37.801Z,7.10
2022-08-17T23:21:40.749Z,7.47
2022-08-17T23:25:44.308Z,7.65
2022-08-17T23:29:47.072Z,8.05
2022-08-17T23:33:59.153Z,7.03
2022-08-17T23:38:02.024Z,7.97
2022-08-17T23:42:14.532Z,7.82
2022-08-17T23:46:17.416Z,7.90
2022-08-17T23:50:23.080Z,8.18
2022-08-17T23:54:43.521Z,9.05
2022-08-17T23:58:47.064Z,8.05
